Weather at Bucholz Army Air Field

Public forecast

Using degrees Celsius for public forecast. Weather courtesy of forecast.io.

Current aviation weather report (METAR) for Bucholz Army Air Field

2024/05/25 23:00 (retrieved 14 minutes ago)

PKWA 252300Z AUTO 07016KT 10SM SCT019 SCT050 28/26 A2990 RMK AO2 T02770256

Aviation forecast (TAF) for Bucholz Army Air Field

2024/05/25 18:27 (retrieved 5 hours ago)

TAF PKWA 251720Z 2518/2618 05012G20KT P6SM VCSH FEW013 BKN035 BKN120 FM260100 07011KT P6SM VCSH SCT018 SCT035 BKN130